createdAt,value
2022-09-24T00:01:34.596Z,13.77
2022-09-24T00:04:02.406Z,16.33
2022-09-24T00:06:30.616Z,15.93
2022-09-24T00:08:57.988Z,15.83
2022-09-24T00:11:25.565Z,23.37
2022-09-24T00:13:53.046Z,20.23
2022-09-24T00:16:22.252Z,17.57
2022-09-24T00:18:48.606Z,14.87
2022-09-24T00:21:26.531Z,16.50
2022-09-24T00:23:55.146Z,16.43
2022-09-24T00:26:40.278Z,15.57
2022-09-24T00:29:07.129Z,15.73
2022-09-24T00:31:33.876Z,15.37
2022-09-24T00:34:00.887Z,14.07
2022-09-24T00:36:27.997Z,16.50
2022-09-24T00:38:56.733Z,16.33
2022-09-24T00:41:27.526Z,16.57
2022-09-24T00:43:53.837Z,19.13
2022-09-24T00:46:23.418Z,19.23
2022-09-24T00:48:53.007Z,22.77
2022-09-24T00:51:20.985Z,17.47
2022-09-24T00:53:50.866Z,23.00
2022-09-24T00:56:19.477Z,23.33
2022-09-24T00:58:52.260Z,24.67
2022-09-24T01:01:21.899Z,21.30
2022-09-24T01:03:50.569Z,20.57
2022-09-24T01:06:16.917Z,24.27
2022-09-24T01:08:43.852Z,24.23
2022-09-24T01:11:18.891Z,27.40
2022-09-24T01:13:48.955Z,22.83
2022-09-24T01:16:33.050Z,30.33
2022-09-24T01:19:12.750Z,31.70
2022-09-24T01:21:50.635Z,25.20
2022-09-24T01:24:44.717Z,29.80
2022-09-24T01:27:22.769Z,33.40
2022-09-24T01:30:04.129Z,26.63
2022-09-24T01:32:34.316Z,24.87
2022-09-24T01:35:07.517Z,32.20
2022-09-24T01:37:37.874Z,24.63
2022-09-24T01:40:05.938Z,34.47
2022-09-24T01:42:33.135Z,27.40
2022-09-24T01:45:01.730Z,24.20
2022-09-24T01:47:40.010Z,32.67
2022-09-24T01:50:09.098Z,24.50
2022-09-24T01:52:40.693Z,27.87
2022-09-24T01:55:10.181Z,30.47
2022-09-24T01:57:45.520Z,26.50
2022-09-24T02:00:15.036Z,20.80
2022-09-24T02:03:20.090Z,25.80
2022-09-24T02:05:46.393Z,21.33
2022-09-24T02:08:17.043Z,20.87
2022-09-24T02:11:05.422Z,21.97
2022-09-24T02:13:39.404Z,20.93
2022-09-24T02:16:07.781Z,22.03
2022-09-24T02:18:39.205Z,23.53
2022-09-24T02:21:13.215Z,28.67
2022-09-24T02:23:43.770Z,19.27
2022-09-24T02:26:11.170Z,25.17
2022-09-24T02:28:37.668Z,20.00
2022-09-24T02:31:11.426Z,18.93
2022-09-24T02:34:00.758Z,18.47
2022-09-24T02:36:28.919Z,19.20
2022-09-24T02:38:55.281Z,18.70
2022-09-24T02:41:23.903Z,20.10
2022-09-24T02:43:53.029Z,20.23
2022-09-24T02:46:19.582Z,19.80
2022-09-24T02:48:45.944Z,22.77
2022-09-24T02:51:12.294Z,18.83
2022-09-24T02:53:38.630Z,18.47
2022-09-24T02:56:05.250Z,19.67
2022-09-24T02:58:31.539Z,32.90
2022-09-24T03:00:57.890Z,32.93
2022-09-24T03:03:24.751Z,24.43
2022-09-24T03:05:52.869Z,20.27
2022-09-24T03:08:20.499Z,17.53
2022-09-24T03:10:47.150Z,19.33
2022-09-24T03:13:13.754Z,24.70
2022-09-24T03:15:40.072Z,24.70
2022-09-24T03:18:06.407Z,21.77
2022-09-24T03:20:32.803Z,20.87
2022-09-24T03:22:59.140Z,20.03
2022-09-24T03:25:25.776Z,23.20
2022-09-24T03:27:52.177Z,18.43
2022-09-24T03:30:36.823Z,19.03
2022-09-24T03:33:03.235Z,20.07
2022-09-24T03:35:29.581Z,22.67
2022-09-24T03:37:55.844Z,21.43
2022-09-24T03:40:22.485Z,20.07
2022-09-24T03:42:48.881Z,24.93
2022-09-24T03:45:15.221Z,19.57
2022-09-24T03:47:42.289Z,21.57
2022-09-24T03:50:11.462Z,24.93
2022-09-24T03:52:40.488Z,24.23
2022-09-24T03:55:07.973Z,23.70
2022-09-24T03:57:34.385Z,26.53
2022-09-24T04:00:00.875Z,19.10
2022-09-24T04:02:27.211Z,21.10
2022-09-24T04:04:53.910Z,23.57
2022-09-24T04:07:20.272Z,20.30
2022-09-24T04:09:46.605Z,23.97
2022-09-24T04:12:13.101Z,23.30
2022-09-24T04:14:39.456Z,18.43
2022-09-24T04:17:05.785Z,18.60
2022-09-24T04:19:32.074Z,21.03
2022-09-24T04:21:58.503Z,20.07
2022-09-24T04:24:24.853Z,24.37
2022-09-24T04:26:51.219Z,19.73
2022-09-24T04:29:18.067Z,18.43
2022-09-24T04:31:45.978Z,20.97
2022-09-24T04:34:12.564Z,19.67
2022-09-24T04:36:38.902Z,21.93
2022-09-24T04:39:05.669Z,20.50
2022-09-24T04:41:32.095Z,23.73
2022-09-24T04:43:59.298Z,23.03
2022-09-24T04:46:25.745Z,19.50
2022-09-24T04:48:53.094Z,19.37
2022-09-24T04:51:21.188Z,20.23
2022-09-24T04:53:49.213Z,19.77
2022-09-24T04:56:15.593Z,21.00
2022-09-24T04:58:42.043Z,21.77
2022-09-24T05:01:08.425Z,20.77
2022-09-24T05:03:34.978Z,24.40
2022-09-24T05:06:01.889Z,21.33
2022-09-24T05:08:28.322Z,22.70
2022-09-24T05:10:54.651Z,18.73
2022-09-24T05:13:21.572Z,18.73
2022-09-24T05:15:47.949Z,21.83
2022-09-24T05:18:14.350Z,27.33
2022-09-24T05:20:40.685Z,20.83
2022-09-24T05:23:07.083Z,20.07
2022-09-24T05:25:33.505Z,26.77
2022-09-24T05:27:59.955Z,20.00
2022-09-24T05:30:26.835Z,17.77
2022-09-24T05:32:53.358Z,19.03
2022-09-24T05:35:20.214Z,23.03
2022-09-24T05:37:48.953Z,25.33
2022-09-24T05:40:34.683Z,19.37
2022-09-24T05:43:01.946Z,28.53
2022-09-24T05:45:29.910Z,25.23
2022-09-24T05:47:56.270Z,19.63
2022-09-24T05:50:22.811Z,23.37
2022-09-24T05:52:49.163Z,18.43
2022-09-24T05:55:15.631Z,19.50
2022-09-24T05:57:42.008Z,20.80
2022-09-24T06:00:08.837Z,21.93
2022-09-24T06:02:41.369Z,28.80
2022-09-24T06:05:07.942Z,21.60
2022-09-24T06:07:34.338Z,25.93
2022-09-24T06:10:00.804Z,17.53
2022-09-24T06:12:27.308Z,17.73
2022-09-24T06:14:54.014Z,17.93
2022-09-24T06:17:21.633Z,19.17
2022-09-24T06:19:47.987Z,32.33
2022-09-24T06:22:14.783Z,23.67
2022-09-24T06:24:41.074Z,27.10
2022-09-24T06:27:07.720Z,23.93
2022-09-24T06:29:34.021Z,28.73
2022-09-24T06:32:01.810Z,21.03
2022-09-24T06:34:28.335Z,27.90
2022-09-24T06:36:55.105Z,23.90
2022-09-24T06:39:22.475Z,23.07
2022-09-24T06:41:50.241Z,18.27
2022-09-24T06:44:17.564Z,19.87
2022-09-24T06:46:43.926Z,24.57
2022-09-24T06:49:10.388Z,18.87
2022-09-24T06:51:36.931Z,21.40
2022-09-24T06:54:03.316Z,42.63
2022-09-24T06:56:30.939Z,29.53
2022-09-24T06:58:57.215Z,21.23
2022-09-24T07:01:23.592Z,26.03
2022-09-24T07:03:50.029Z,21.80
2022-09-24T07:06:16.302Z,16.47
2022-09-24T07:08:43.091Z,19.70
2022-09-24T07:11:09.410Z,18.73
2022-09-24T07:13:36.061Z,23.57
2022-09-24T07:16:02.628Z,29.10
2022-09-24T07:18:29.097Z,27.00
2022-09-24T07:20:56.100Z,26.80
2022-09-24T07:23:23.291Z,28.83
2022-09-24T07:25:51.050Z,21.53
2022-09-24T07:28:17.375Z,26.27
2022-09-24T07:30:43.669Z,22.83
2022-09-24T07:33:10.099Z,23.73
2022-09-24T07:35:39.814Z,23.73
2022-09-24T07:38:11.856Z,22.73
2022-09-24T07:40:38.654Z,28.47
2022-09-24T07:43:06.960Z,27.77
2022-09-24T07:45:33.358Z,25.07
2022-09-24T07:48:05.593Z,19.23
2022-09-24T07:50:34.742Z,24.43
2022-09-24T07:53:01.197Z,21.50
2022-09-24T07:55:27.619Z,21.67
2022-09-24T07:57:55.401Z,24.10
2022-09-24T08:00:23.373Z,20.10
2022-09-24T08:02:50.355Z,25.70
2022-09-24T08:05:17.926Z,18.20
2022-09-24T08:07:52.598Z,17.33
2022-09-24T08:10:18.926Z,21.27
2022-09-24T08:12:45.265Z,19.77
2022-09-24T08:15:11.554Z,20.30
2022-09-24T08:17:37.887Z,18.07
2022-09-24T08:20:04.347Z,16.73
2022-09-24T08:22:31.192Z,22.47
2022-09-24T08:24:57.801Z,22.30
2022-09-24T08:27:25.089Z,22.27
2022-09-24T08:29:51.924Z,18.83
2022-09-24T08:32:18.257Z,20.23
2022-09-24T08:34:45.248Z,18.13
2022-09-24T08:37:12.029Z,17.50
2022-09-24T08:39:38.366Z,22.30
2022-09-24T08:42:39.238Z,15.90
2022-09-24T08:45:25.749Z,20.17
2022-09-24T08:47:55.110Z,14.40
2022-09-24T08:50:23.207Z,14.90
2022-09-24T08:53:08.323Z,18.93
2022-09-24T08:55:41.731Z,15.23
2022-09-24T08:58:17.208Z,16.40
2022-09-24T09:00:50.243Z,15.50
2022-09-24T09:03:25.513Z,15.97
2022-09-24T09:06:06.792Z,24.17
2022-09-24T09:09:01.802Z,17.83
2022-09-24T09:11:34.891Z,24.30
2022-09-24T09:14:12.003Z,20.57
2022-09-24T09:16:54.010Z,15.93
2022-09-24T09:19:23.697Z,14.50
2022-09-24T09:21:59.007Z,17.50
2022-09-24T09:24:27.271Z,15.33
2022-09-24T09:26:55.913Z,13.37
2022-09-24T09:29:24.319Z,15.70
2022-09-24T09:32:10.007Z,9.30
2022-09-24T09:34:42.844Z,10.53
2022-09-24T09:37:25.897Z,11.13
2022-09-24T09:39:59.124Z,10.27
2022-09-24T09:42:40.312Z,8.77
2022-09-24T09:45:22.996Z,8.87
2022-09-24T09:47:57.361Z,8.50
2022-09-24T09:50:44.312Z,7.23
2022-09-24T09:53:23.019Z,7.67
2022-09-24T09:55:58.223Z,8.20
2022-09-24T09:58:27.625Z,8.90
2022-09-24T10:01:05.978Z,7.83
2022-09-24T10:03:46.776Z,9.33
2022-09-24T10:06:22.330Z,11.00
2022-09-24T10:08:48.571Z,9.60
2022-09-24T10:11:16.671Z,7.53
2022-09-24T10:13:43.373Z,8.97
2022-09-24T10:16:12.360Z,9.50
2022-09-24T10:18:50.885Z,9.30
2022-09-24T10:21:37.243Z,9.57
2022-09-24T10:24:04.875Z,8.87
2022-09-24T10:26:43.876Z,9.90
2022-09-24T10:29:32.680Z,10.60
2022-09-24T10:31:59.319Z,11.03
2022-09-24T10:34:28.071Z,10.20
2022-09-24T10:37:08.680Z,10.53
2022-09-24T10:39:37.164Z,10.23
2022-09-24T10:42:03.634Z,9.77
2022-09-24T10:44:34.067Z,10.07
2022-09-24T10:47:27.280Z,10.27
2022-09-24T10:49:53.500Z,10.37
2022-09-24T10:52:57.301Z,10.97
2022-09-24T10:55:26.658Z,13.90
2022-09-24T10:58:13.032Z,10.33
2022-09-24T11:00:51.846Z,10.10
2022-09-24T11:03:18.151Z,10.90
2022-09-24T11:06:10.320Z,10.50
2022-09-24T11:09:03.419Z,10.77
2022-09-24T11:11:41.402Z,10.90
2022-09-24T11:14:24.273Z,10.93
2022-09-24T11:16:58.374Z,9.73
2022-09-24T11:19:48.489Z,10.57
2022-09-24T11:22:16.476Z,11.87
2022-09-24T11:25:07.030Z,9.40
2022-09-24T11:28:04.859Z,9.80
2022-09-24T11:30:47.701Z,10.70
2022-09-24T11:33:26.126Z,9.93
2022-09-24T11:35:56.479Z,11.20
2022-09-24T11:38:27.114Z,11.10
2022-09-24T11:41:17.943Z,11.10
2022-09-24T11:44:26.995Z,11.33
2022-09-24T11:47:30.357Z,11.37
2022-09-24T11:50:13.016Z,11.23
2022-09-24T11:52:43.496Z,15.23
2022-09-24T11:55:20.848Z,13.00
2022-09-24T11:58:15.351Z,12.67
2022-09-24T12:00:49.717Z,11.30
2022-09-24T12:03:25.100Z,12.10
2022-09-24T12:06:06.946Z,11.47
2022-09-24T12:08:41.664Z,13.63
2022-09-24T12:11:10.364Z,15.77
2022-09-24T12:14:02.713Z,11.00
2022-09-24T12:16:33.778Z,12.17
2022-09-24T12:19:22.649Z,11.77
2022-09-24T12:21:50.263Z,9.90
2022-09-24T12:24:20.268Z,8.77
2022-09-24T12:26:48.069Z,7.77
2022-09-24T12:29:51.830Z,8.37
2022-09-24T12:32:50.822Z,8.50
2022-09-24T12:35:47.450Z,8.80
2022-09-24T12:38:21.888Z,9.87
2022-09-24T12:40:51.349Z,8.77
2022-09-24T12:43:25.061Z,9.57
2022-09-24T12:46:04.004Z,9.93
2022-09-24T12:48:35.976Z,9.30
2022-09-24T12:51:05.080Z,10.10
2022-09-24T12:53:35.656Z,10.23
2022-09-24T12:56:03.254Z,9.70
2022-09-24T12:58:35.886Z,8.57
2022-09-24T13:01:08.228Z,8.37
2022-09-24T13:03:43.225Z,8.93
2022-09-24T13:06:34.877Z,8.53
2022-09-24T13:09:02.196Z,7.37
2022-09-24T13:11:33.330Z,8.43
2022-09-24T13:14:02.473Z,10.80
2022-09-24T13:16:29.550Z,10.57
2022-09-24T13:19:02.187Z,9.60
2022-09-24T13:21:30.463Z,10.17
2022-09-24T13:23:56.982Z,9.50
2022-09-24T13:26:31.309Z,9.07
2022-09-24T13:29:00.525Z,8.60
2022-09-24T13:31:35.268Z,10.00
2022-09-24T13:34:04.644Z,9.07
2022-09-24T13:36:33.831Z,8.53
2022-09-24T13:39:14.886Z,8.70
2022-09-24T13:42:05.592Z,10.00
2022-09-24T13:44:39.141Z,11.07
2022-09-24T13:47:29.942Z,10.93
2022-09-24T13:50:07.232Z,8.47
2022-09-24T13:52:42.093Z,8.40
2022-09-24T13:55:22.913Z,9.90
2022-09-24T13:57:49.332Z,11.17
2022-09-24T14:00:22.079Z,11.07
2022-09-24T14:02:53.215Z,9.63
2022-09-24T14:05:20.053Z,10.43
2022-09-24T14:07:59.188Z,9.30
2022-09-24T14:10:25.863Z,12.17
2022-09-24T14:13:22.660Z,10.23
2022-09-24T14:15:52.396Z,9.77
2022-09-24T14:18:19.336Z,8.40
2022-09-24T14:20:53.911Z,8.33
2022-09-24T14:23:23.469Z,8.50
2022-09-24T14:25:51.990Z,7.90
2022-09-24T14:28:19.789Z,7.67
2022-09-24T14:30:53.284Z,7.60
2022-09-24T14:33:32.532Z,9.27
2022-09-24T14:36:01.755Z,8.67
2022-09-24T14:38:30.206Z,8.37
2022-09-24T14:41:01.798Z,7.47
2022-09-24T14:43:49.509Z,8.50
2022-09-24T14:46:22.475Z,8.23
2022-09-24T14:48:49.023Z,8.27
2022-09-24T14:51:26.693Z,8.83
2022-09-24T14:54:00.406Z,8.33
2022-09-24T14:56:29.816Z,8.33
2022-09-24T14:58:56.559Z,8.27
2022-09-24T15:01:25.763Z,8.30
2022-09-24T15:03:54.288Z,9.13
2022-09-24T15:06:25.359Z,8.07
2022-09-24T15:09:02.589Z,8.13
2022-09-24T15:11:34.047Z,7.63
2022-09-24T15:14:27.267Z,6.37
2022-09-24T15:16:55.131Z,7.03
2022-09-24T15:19:22.494Z,8.83
2022-09-24T15:21:51.162Z,7.80
2022-09-24T15:24:17.978Z,8.83
2022-09-24T15:26:47.707Z,7.00
2022-09-24T15:29:18.327Z,7.60
2022-09-24T15:31:44.787Z,8.20
2022-09-24T15:34:11.044Z,8.10
2022-09-24T15:36:37.816Z,7.43
2022-09-24T15:39:04.700Z,7.80
2022-09-24T15:41:30.960Z,7.93
2022-09-24T15:43:58.256Z,7.83
2022-09-24T15:46:26.146Z,9.37
2022-09-24T15:48:53.194Z,8.07
2022-09-24T15:51:22.345Z,8.50
2022-09-24T15:53:50.121Z,7.30
2022-09-24T15:56:16.809Z,7.73
2022-09-24T15:58:43.246Z,8.57
2022-09-24T16:01:18.920Z,8.23
2022-09-24T16:03:45.369Z,8.30
2022-09-24T16:06:14.056Z,8.33
2022-09-24T16:08:42.230Z,8.00
2022-09-24T16:11:09.424Z,7.40
2022-09-24T16:13:36.117Z,8.07
2022-09-24T16:16:05.803Z,7.77
2022-09-24T16:18:32.201Z,8.50
2022-09-24T16:20:58.522Z,9.07
2022-09-24T16:23:25.006Z,10.63
2022-09-24T16:25:59.206Z,9.03
2022-09-24T16:28:26.156Z,10.90
2022-09-24T16:30:52.967Z,11.43
2022-09-24T16:33:19.427Z,10.83
2022-09-24T16:35:46.073Z,9.07
2022-09-24T16:38:12.447Z,9.53
2022-09-24T16:40:39.321Z,9.57
2022-09-24T16:43:14.642Z,9.70
2022-09-24T16:45:40.909Z,8.07
2022-09-24T16:48:07.160Z,8.37
2022-09-24T16:50:33.693Z,9.10
2022-09-24T16:53:00.219Z,8.43
2022-09-24T16:55:26.566Z,8.27
2022-09-24T16:57:53.121Z,9.67
2022-09-24T17:00:20.153Z,9.30
2022-09-24T17:02:46.860Z,9.30
2022-09-24T17:05:13.317Z,10.00
2022-09-24T17:07:39.721Z,10.97
2022-09-24T17:10:16.066Z,10.57
2022-09-24T17:12:50.271Z,11.47
2022-09-24T17:15:20.396Z,9.50
2022-09-24T17:17:50.268Z,9.60
2022-09-24T17:20:18.269Z,9.67
2022-09-24T17:22:45.001Z,12.93
2022-09-24T17:25:11.466Z,10.70
2022-09-24T17:27:39.862Z,9.07
2022-09-24T17:30:07.196Z,11.43
2022-09-24T17:32:33.537Z,9.97
2022-09-24T17:34:59.863Z,10.23
2022-09-24T17:37:27.380Z,9.03
2022-09-24T17:39:53.692Z,10.70
2022-09-24T17:42:20.028Z,11.30
2022-09-24T17:44:46.364Z,10.63
2022-09-24T17:47:12.828Z,9.40
2022-09-24T17:49:39.059Z,10.60
2022-09-24T17:52:05.705Z,10.17
2022-09-24T17:54:32.207Z,11.47
2022-09-24T17:56:58.567Z,10.67
2022-09-24T17:59:26.987Z,9.70
2022-09-24T18:01:53.836Z,11.93
2022-09-24T18:04:21.106Z,8.97
2022-09-24T18:06:48.989Z,9.70
2022-09-24T18:09:17.109Z,10.00
2022-09-24T18:11:49.092Z,9.93
2022-09-24T18:14:16.924Z,9.97
2022-09-24T18:16:44.800Z,10.90
2022-09-24T18:19:13.412Z,9.80
2022-09-24T18:21:39.824Z,11.37
2022-09-24T18:24:06.254Z,10.43
2022-09-24T18:26:35.430Z,9.50
2022-09-24T18:29:13.529Z,12.93
2022-09-24T18:31:41.187Z,11.90
2022-09-24T18:34:09.105Z,12.00
2022-09-24T18:36:38.643Z,11.47
2022-09-24T18:39:07.172Z,10.80
2022-09-24T18:41:34.270Z,10.97
2022-09-24T18:44:00.962Z,11.50
2022-09-24T18:46:28.898Z,11.07
2022-09-24T18:48:56.180Z,12.87
2022-09-24T18:51:31.035Z,11.80
2022-09-24T18:53:58.744Z,11.70
2022-09-24T18:56:25.663Z,12.23
2022-09-24T18:59:11.650Z,10.83
2022-09-24T19:01:39.445Z,10.57
2022-09-24T19:04:06.983Z,11.23
2022-09-24T19:06:35.750Z,12.27
2022-09-24T19:09:02.170Z,12.03
2022-09-24T19:11:30.386Z,12.07
2022-09-24T19:13:58.133Z,16.17
2022-09-24T19:16:25.019Z,11.83
2022-09-24T19:18:51.998Z,10.60
2022-09-24T19:21:19.317Z,10.57
2022-09-24T19:23:47.837Z,13.53
2022-09-24T19:26:16.961Z,11.50
2022-09-24T19:28:44.845Z,12.77
2022-09-24T19:31:21.824Z,11.00
2022-09-24T19:33:49.998Z,11.40
2022-09-24T19:36:19.916Z,14.30
2022-09-24T19:38:47.361Z,11.60
2022-09-24T19:41:18.212Z,12.77
2022-09-24T19:43:44.788Z,14.67
2022-09-24T19:46:12.826Z,12.67
2022-09-24T19:48:41.429Z,13.73
2022-09-24T19:51:16.397Z,13.37
2022-09-24T19:53:43.400Z,13.63
2022-09-24T19:56:11.273Z,14.43
2022-09-24T19:58:37.612Z,12.90
2022-09-24T20:01:04.937Z,12.50
2022-09-24T20:03:31.638Z,13.50
2022-09-24T20:05:57.993Z,13.50
2022-09-24T20:08:24.414Z,13.20
2022-09-24T20:10:50.693Z,13.93
2022-09-24T20:13:17.087Z,15.77
2022-09-24T20:15:43.557Z,22.00
2022-09-24T20:18:12.311Z,11.70
2022-09-24T20:20:42.187Z,12.83
2022-09-24T20:23:10.617Z,13.97
2022-09-24T20:25:55.669Z,14.83
2022-09-24T20:28:21.954Z,13.20
2022-09-24T20:30:48.284Z,15.07
2022-09-24T20:33:15.241Z,15.00
2022-09-24T20:35:42.163Z,14.57
2022-09-24T20:38:09.129Z,16.70
2022-09-24T20:40:38.864Z,14.40
2022-09-24T20:43:05.273Z,14.10
2022-09-24T20:45:33.010Z,14.47
2022-09-24T20:47:59.379Z,13.00
2022-09-24T20:50:25.667Z,12.77
2022-09-24T20:52:52.040Z,16.57
2022-09-24T20:55:18.363Z,13.37
2022-09-24T20:57:44.737Z,14.37
2022-09-24T21:00:14.116Z,13.50
2022-09-24T21:02:41.570Z,13.43
2022-09-24T21:05:09.399Z,13.20
2022-09-24T21:07:39.949Z,12.07
2022-09-24T21:10:09.750Z,11.70
2022-09-24T21:12:36.733Z,13.40
2022-09-24T21:15:05.179Z,13.63
2022-09-24T21:17:31.629Z,12.27
2022-09-24T21:19:58.194Z,12.43
2022-09-24T21:22:25.372Z,13.93
2022-09-24T21:24:52.172Z,12.63
2022-09-24T21:27:19.024Z,12.03
2022-09-24T21:29:47.172Z,12.83
2022-09-24T21:32:19.155Z,11.80
2022-09-24T21:34:45.565Z,11.70
2022-09-24T21:37:14.395Z,13.17
2022-09-24T21:39:43.074Z,15.50
2022-09-24T21:42:09.471Z,11.53
2022-09-24T21:44:35.980Z,13.17
2022-09-24T21:47:03.536Z,11.93
2022-09-24T21:49:33.484Z,11.70
2022-09-24T21:51:59.843Z,14.50
2022-09-24T21:54:26.192Z,10.83
2022-09-24T21:56:54.252Z,11.03
2022-09-24T21:59:39.028Z,12.30
2022-09-24T22:02:05.425Z,10.03
2022-09-24T22:04:33.028Z,9.93
2022-09-24T22:06:59.554Z,10.73
2022-09-24T22:09:26.656Z,8.97
2022-09-24T22:11:55.712Z,12.13
2022-09-24T22:14:22.978Z,8.83
2022-09-24T22:16:49.384Z,10.50
2022-09-24T22:19:15.779Z,10.80
2022-09-24T22:21:42.172Z,12.80
2022-09-24T22:24:08.585Z,10.17
2022-09-24T22:26:34.899Z,9.60
2022-09-24T22:29:02.968Z,12.20
2022-09-24T22:31:30.124Z,10.23
2022-09-24T22:34:15.681Z,10.60
2022-09-24T22:36:42.453Z,10.50
2022-09-24T22:39:09.280Z,11.67
2022-09-24T22:41:36.641Z,12.07
2022-09-24T22:44:03.125Z,10.33
2022-09-24T22:46:32.004Z,8.93
2022-09-24T22:48:58.807Z,10.57
2022-09-24T22:51:26.994Z,9.13
2022-09-24T22:53:54.306Z,13.60
2022-09-24T22:56:23.548Z,8.80
2022-09-24T22:58:52.385Z,13.27
2022-09-24T23:01:22.327Z,8.30
2022-09-24T23:03:49.977Z,10.60
2022-09-24T23:06:17.573Z,8.00
2022-09-24T23:08:44.233Z,8.27
2022-09-24T23:11:22.719Z,8.03
2022-09-24T23:13:56.667Z,9.27
2022-09-24T23:16:24.657Z,7.80
2022-09-24T23:18:53.853Z,7.13
2022-09-24T23:21:22.210Z,6.90
2022-09-24T23:23:52.054Z,7.27
2022-09-24T23:26:20.272Z,6.17
2022-09-24T23:28:52.997Z,6.20
2022-09-24T23:31:25.043Z,6.63
2022-09-24T23:33:51.950Z,6.83
2022-09-24T23:36:18.337Z,11.83
2022-09-24T23:38:44.759Z,6.00
2022-09-24T23:41:13.077Z,9.37
2022-09-24T23:43:40.899Z,9.53
2022-09-24T23:46:08.832Z,6.77
2022-09-24T23:48:35.263Z,5.63
2022-09-24T23:51:01.540Z,5.23
2022-09-24T23:53:27.914Z,7.03
2022-09-24T23:55:55.231Z,4.40
2022-09-24T23:58:24.028Z,3.97
